Drayton Plains, Michigan
Current Conditions -  °F | °C
As of 3:53 PM on Tuesday 25 Nov 2014 (Local Time) from KPTK Reporting Station
Light Snow Light Snow  
Wind Chill: 20°   Ceiling: 2000
Heat Index: 30°   Visibility: 9mi
Dew Point: 22°   Wind: 13mph
Humidity: 72%   Direction: 240°WSW
Pressure: 30.04"   Gusts: NA
Location:  42.68°N, 83.38°W
Report Text: KPTK 252053Z 24011KT 9SM -SN BKN020 OVC026 M01/M06 A3004 RMK AO2 SLP184 P0000 60000 T10111056 53025
Loading
Personal Weather Stations






























Interactive Weather Map New forecast layout! Learn more

10-Day Weather Forecast

Advertisements
Track Severe Weather on mobile